createdAt,value
2018-09-12T00:00:39.462Z,11.47
2018-09-12T00:03:08.135Z,10.17
2018-09-12T00:05:36.764Z,11.47
2018-09-12T00:08:05.469Z,12.23
2018-09-12T00:10:34.111Z,13.27
2018-09-12T00:13:02.752Z,12.60
2018-09-12T00:15:31.395Z,15.37
2018-09-12T00:18:00.011Z,10.37
2018-09-12T00:20:28.645Z,11.40
2018-09-12T00:22:57.288Z,11.77
2018-09-12T00:25:25.937Z,10.93
2018-09-12T00:27:54.527Z,10.60
2018-09-12T00:30:23.151Z,10.63
2018-09-12T00:32:51.769Z,12.73
2018-09-12T00:35:20.413Z,12.77
2018-09-12T00:40:24.073Z,11.87
2018-09-12T00:42:52.668Z,10.70
2018-09-12T00:45:21.263Z,10.77
2018-09-12T00:47:49.985Z,11.37
2018-09-12T00:50:18.598Z,11.43
2018-09-12T00:52:47.348Z,12.67
2018-09-12T00:55:16.077Z,16.03
2018-09-12T00:57:44.714Z,11.13
2018-09-12T01:00:13.443Z,11.30
2018-09-12T01:02:44.237Z,11.90
2018-09-12T01:05:12.839Z,11.03
2018-09-12T01:07:41.464Z,10.47
2018-09-12T01:10:10.099Z,12.23
2018-09-12T01:12:38.702Z,12.90
2018-09-12T01:15:07.459Z,10.20
2018-09-12T01:17:36.088Z,14.33
2018-09-12T01:20:04.769Z,12.30
2018-09-12T01:22:33.383Z,11.23
2018-09-12T01:25:01.980Z,13.77
2018-09-12T01:27:30.615Z,10.50
2018-09-12T01:29:59.231Z,10.93
2018-09-12T01:32:27.883Z,22.30
2018-09-12T01:34:56.558Z,12.47
2018-09-12T01:37:25.246Z,11.93
2018-09-12T01:39:53.884Z,11.40
2018-09-12T01:42:22.540Z,11.37
2018-09-12T01:44:51.224Z,11.43
2018-09-12T01:47:19.841Z,11.23
2018-09-12T01:49:48.500Z,12.47
2018-09-12T01:52:17.146Z,11.20
2018-09-12T01:54:45.735Z,11.53
2018-09-12T01:57:14.360Z,11.80
2018-09-12T01:59:43.051Z,12.07
2018-09-12T02:02:11.732Z,12.03
2018-09-12T02:04:40.341Z,12.20
2018-09-12T02:07:08.965Z,11.80
2018-09-12T02:09:37.632Z,11.93
2018-09-12T02:12:06.250Z,16.67
2018-09-12T02:14:34.879Z,14.03
2018-09-12T02:17:03.481Z,14.73
2018-09-12T02:19:32.127Z,15.77
2018-09-12T02:22:03.539Z,13.07
2018-09-12T02:24:32.232Z,15.90
2018-09-12T02:27:00.877Z,13.13
2018-09-12T02:29:29.515Z,13.70
2018-09-12T02:31:58.132Z,13.87
2018-09-12T02:34:26.754Z,13.60
2018-09-12T02:36:55.405Z,15.90
2018-09-12T02:39:24.126Z,15.57
2018-09-12T02:41:52.927Z,14.93
2018-09-12T02:44:21.692Z,14.50
2018-09-12T02:46:50.435Z,14.37
2018-09-12T02:49:19.239Z,15.57
2018-09-12T02:51:47.999Z,23.33
2018-09-12T02:54:16.808Z,14.10
2018-09-12T02:56:45.586Z,13.57
2018-09-12T02:59:14.312Z,15.90
2018-09-12T03:01:43.042Z,15.33
2018-09-12T03:04:28.134Z,12.47
2018-09-12T03:06:56.944Z,13.43
2018-09-12T03:09:25.693Z,13.90
2018-09-12T03:11:54.412Z,16.43
2018-09-12T03:14:23.247Z,18.63
2018-09-12T03:16:51.976Z,13.33
2018-09-12T03:19:20.720Z,12.60
2018-09-12T03:21:49.604Z,12.90
2018-09-12T03:24:18.322Z,14.67
2018-09-12T03:26:47.004Z,16.47
2018-09-12T03:29:15.668Z,17.03
2018-09-12T03:31:44.355Z,24.20
2018-09-12T03:34:13.054Z,15.13
2018-09-12T03:36:41.719Z,17.50
2018-09-12T03:39:11.828Z,17.37
2018-09-12T03:41:41.308Z,15.03
2018-09-12T03:44:11.150Z,16.57
2018-09-12T03:46:40.887Z,14.60
2018-09-12T03:49:09.798Z,14.40
2018-09-12T03:51:38.514Z,13.53
2018-09-12T03:54:07.126Z,12.90
2018-09-12T03:56:35.761Z,13.30
2018-09-12T03:59:04.508Z,12.77
2018-09-12T04:01:33.221Z,14.10
2018-09-12T04:04:01.814Z,13.13
2018-09-12T04:06:30.428Z,16.17
2018-09-12T04:09:00.033Z,13.87
2018-09-12T04:11:28.648Z,16.27
2018-09-12T04:13:57.256Z,16.40
2018-09-12T04:16:25.867Z,16.23
2018-09-12T04:18:54.464Z,15.90
2018-09-12T04:21:23.164Z,19.13
2018-09-12T04:23:51.856Z,17.90
2018-09-12T04:26:20.475Z,14.90
2018-09-12T04:28:49.198Z,15.80
2018-09-12T04:31:17.837Z,15.37
2018-09-12T04:33:46.446Z,13.30
2018-09-12T04:36:15.119Z,16.80
2018-09-12T04:38:43.724Z,20.50
2018-09-12T04:41:12.734Z,14.40
2018-09-12T04:43:41.825Z,18.30
2018-09-12T04:46:10.744Z,17.43
2018-09-12T04:48:39.420Z,14.93
2018-09-12T04:51:08.116Z,17.43
2018-09-12T04:53:36.783Z,18.33
2018-09-12T04:56:06.126Z,20.03
2018-09-12T04:58:34.772Z,18.97
2018-09-12T05:01:03.531Z,19.87
2018-09-12T05:03:32.155Z,17.40
2018-09-12T05:06:00.802Z,19.80
2018-09-12T05:08:29.402Z,17.33
2018-09-12T05:10:58.066Z,14.93
2018-09-12T05:13:26.677Z,17.57
2018-09-12T05:15:55.374Z,17.43
2018-09-12T05:18:24.016Z,19.37
2018-09-12T05:20:52.648Z,22.97
2018-09-12T05:23:21.331Z,20.10
2018-09-12T05:25:49.983Z,18.30
2018-09-12T05:28:18.620Z,16.70
2018-09-12T05:30:47.310Z,16.80
2018-09-12T05:33:15.994Z,20.90
2018-09-12T05:35:44.617Z,20.70
2018-09-12T05:38:13.264Z,25.73
2018-09-12T05:40:41.913Z,21.40
2018-09-12T05:43:10.547Z,16.37
2018-09-12T05:45:39.271Z,16.60
2018-09-12T05:48:07.957Z,18.03
2018-09-12T05:50:36.626Z,19.43
2018-09-12T05:53:05.328Z,22.67
2018-09-12T05:55:34.083Z,17.93
2018-09-12T05:58:03.429Z,18.20
2018-09-12T06:00:32.057Z,19.20
2018-09-12T06:03:00.821Z,23.20
2018-09-12T06:05:29.497Z,18.13
2018-09-12T06:07:58.097Z,17.80
2018-09-12T06:10:26.718Z,16.77
2018-09-12T06:12:55.350Z,16.65
2018-09-12T06:15:24.077Z,23.22
2018-09-12T06:17:52.742Z,17.77
2018-09-12T06:20:21.403Z,16.57
2018-09-12T06:22:50.135Z,17.37
2018-09-12T06:25:18.829Z,18.07
2018-09-12T06:27:47.482Z,15.63
2018-09-12T06:30:16.372Z,15.38
2018-09-12T06:32:45.118Z,18.25
2018-09-12T06:35:13.868Z,18.48
2018-09-12T06:37:42.685Z,14.07
2018-09-12T06:40:11.400Z,14.45
2018-09-12T06:42:40.178Z,14.25
2018-09-12T06:45:08.925Z,15.85
2018-09-12T06:47:37.717Z,17.98
2018-09-12T06:50:06.581Z,14.20
2018-09-12T06:52:35.404Z,12.65
2018-09-12T06:55:04.236Z,11.55
2018-09-12T06:57:33.101Z,10.98
2018-09-12T07:00:01.845Z,10.60
2018-09-12T07:02:30.579Z,10.05
2018-09-12T07:04:59.257Z,12.82
2018-09-12T07:07:27.978Z,9.93
2018-09-12T07:09:56.722Z,9.90
2018-09-12T07:12:25.509Z,9.08
2018-09-12T07:14:54.233Z,9.60
2018-09-12T07:17:22.944Z,10.80
2018-09-12T07:19:51.720Z,11.10
2018-09-12T07:22:20.535Z,10.43
2018-09-12T07:24:49.433Z,10.72
2018-09-12T07:27:18.135Z,12.25
2018-09-12T07:29:46.841Z,10.32
2018-09-12T07:32:15.623Z,14.90
2018-09-12T07:34:44.303Z,9.98
2018-09-12T07:37:13.078Z,9.88
2018-09-12T07:39:41.845Z,9.48
2018-09-12T07:42:10.640Z,9.25
2018-09-12T07:44:39.379Z,10.35
2018-09-12T07:47:08.169Z,10.28
2018-09-12T07:49:36.918Z,10.35
2018-09-12T07:52:05.831Z,8.65
2018-09-12T07:54:34.859Z,8.03
2018-09-12T07:57:03.640Z,7.87
2018-09-12T07:59:32.441Z,9.08
2018-09-12T08:02:01.188Z,8.40
2018-09-12T08:04:30.031Z,8.68
2018-09-12T08:06:59.949Z,10.43
2018-09-12T08:09:28.757Z,7.62
2018-09-12T08:11:58.592Z,8.45
2018-09-12T08:14:27.353Z,8.40
2018-09-12T08:16:56.160Z,8.43
2018-09-12T08:19:24.885Z,7.92
2018-09-12T08:21:53.593Z,7.65
2018-09-12T08:24:22.346Z,10.15
2018-09-12T08:26:51.148Z,8.43
2018-09-12T08:29:19.856Z,8.70
2018-09-12T08:31:48.662Z,8.48
2018-09-12T08:34:17.462Z,11.20
2018-09-12T08:36:46.270Z,11.12
2018-09-12T08:39:15.052Z,7.83
2018-09-12T08:41:43.858Z,9.88
2018-09-12T08:44:12.683Z,8.50
2018-09-12T08:46:41.447Z,8.43
2018-09-12T08:49:10.269Z,7.70
2018-09-12T08:51:39.141Z,7.10
2018-09-12T08:54:07.858Z,9.43
2018-09-12T08:56:36.792Z,8.48
2018-09-12T08:59:05.653Z,8.60
2018-09-12T09:01:34.547Z,9.58
2018-09-12T09:04:03.312Z,11.18
2018-09-12T09:06:32.101Z,13.20
2018-09-12T09:09:00.818Z,8.23
2018-09-12T09:11:29.613Z,9.80
2018-09-12T09:13:58.393Z,8.68
2018-09-12T09:16:27.485Z,9.43
2018-09-12T09:18:56.177Z,7.10
2018-09-12T09:21:24.907Z,7.33
2018-09-12T09:23:53.824Z,7.62
2018-09-12T09:26:22.584Z,7.50
2018-09-12T09:28:51.614Z,6.78
2018-09-12T09:31:20.422Z,7.05
2018-09-12T09:33:49.348Z,7.55
2018-09-12T09:36:18.182Z,6.72
2018-09-12T09:38:46.924Z,7.25
2018-09-12T09:41:15.671Z,7.80
2018-09-12T09:43:44.535Z,7.25
2018-09-12T09:46:17.086Z,7.28
2018-09-12T09:48:45.867Z,7.12
2018-09-12T09:51:14.924Z,7.45
2018-09-12T09:53:43.947Z,6.33
2018-09-12T09:56:12.822Z,6.50
2018-09-12T09:58:41.856Z,7.22
2018-09-12T10:01:15.975Z,7.22
2018-09-12T10:03:50.021Z,7.25
2018-09-12T10:06:21.061Z,10.08
2018-09-12T10:08:57.399Z,7.10
2018-09-12T10:11:26.152Z,7.17
2018-09-12T10:13:54.971Z,9.03
2018-09-12T10:16:23.740Z,8.98
2018-09-12T10:18:52.484Z,10.00
2018-09-12T10:21:21.316Z,9.45
2018-09-12T10:23:50.208Z,8.55
2018-09-12T10:26:18.921Z,6.80
2018-09-12T10:28:47.693Z,8.55
2018-09-12T10:31:16.490Z,7.62
2018-09-12T10:33:45.298Z,8.60
2018-09-12T10:36:13.977Z,7.30
2018-09-12T10:38:42.802Z,8.73
2018-09-12T10:41:11.494Z,6.20
2018-09-12T10:43:40.556Z,6.10
2018-09-12T10:46:09.592Z,16.90
2018-09-12T10:48:38.369Z,8.80
2018-09-12T10:51:07.161Z,7.65
2018-09-12T10:53:35.889Z,7.42
2018-09-12T10:56:04.734Z,8.25
2018-09-12T10:58:33.489Z,10.20
2018-09-12T11:01:02.342Z,7.85
2018-09-12T11:03:31.101Z,6.47
2018-09-12T11:05:59.875Z,7.40
2018-09-12T11:08:28.725Z,8.85
2018-09-12T11:10:57.537Z,6.67
2018-09-12T11:13:26.349Z,6.15
2018-09-12T11:15:55.161Z,7.35
2018-09-12T11:18:23.897Z,8.05
2018-09-12T11:20:52.593Z,5.95
2018-09-12T11:23:21.320Z,8.00
2018-09-12T11:25:50.081Z,6.10
2018-09-12T11:28:18.853Z,7.53
2018-09-12T11:30:47.588Z,7.22
2018-09-12T11:33:16.438Z,5.85
2018-09-12T11:35:45.186Z,6.92
2018-09-12T11:38:14.010Z,6.25
2018-09-12T11:40:49.189Z,6.62
2018-09-12T11:43:17.974Z,9.85
2018-09-12T11:45:46.797Z,8.40
2018-09-12T11:48:15.720Z,6.30
2018-09-12T11:50:44.487Z,7.17
2018-09-12T11:53:13.316Z,7.00
2018-09-12T11:55:42.157Z,6.25
2018-09-12T11:58:10.972Z,6.55
2018-09-12T12:00:39.889Z,11.70
2018-09-12T12:03:08.700Z,7.67
2018-09-12T12:05:37.512Z,9.00
2018-09-12T12:08:06.287Z,6.15
2018-09-12T12:10:35.097Z,8.73
2018-09-12T12:13:03.952Z,10.50
2018-09-12T12:15:32.694Z,7.17
2018-09-12T12:18:01.544Z,7.47
2018-09-12T12:20:30.455Z,6.95
2018-09-12T12:22:59.226Z,5.95
2018-09-12T12:25:27.987Z,7.40
2018-09-12T12:27:56.763Z,5.97
2018-09-12T12:30:26.361Z,6.72
2018-09-12T12:32:55.163Z,7.92
2018-09-12T12:35:24.058Z,9.60
2018-09-12T12:37:53.261Z,7.78
2018-09-12T12:40:22.291Z,7.95
2018-09-12T12:42:51.134Z,6.20
2018-09-12T12:45:19.877Z,6.70
2018-09-12T12:47:48.719Z,7.62
2018-09-12T12:50:17.573Z,7.37
2018-09-12T12:52:46.682Z,7.65
2018-09-12T12:55:15.421Z,6.15
2018-09-12T12:57:44.163Z,6.92
2018-09-12T13:00:13.024Z,5.70
2018-09-12T13:02:41.720Z,6.62
2018-09-12T13:05:10.536Z,15.40
2018-09-12T13:07:39.469Z,9.78
2018-09-12T13:10:08.248Z,9.73
2018-09-12T13:12:37.083Z,11.12
2018-09-12T13:15:06.016Z,7.47
2018-09-12T13:17:34.772Z,8.23
2018-09-12T13:20:03.597Z,7.22
2018-09-12T13:22:32.280Z,5.62
2018-09-12T13:25:01.046Z,6.67
2018-09-12T13:27:29.946Z,6.37
2018-09-12T13:29:59.032Z,6.85
2018-09-12T13:32:28.052Z,13.90
2018-09-12T13:34:56.821Z,6.43
2018-09-12T13:37:25.547Z,8.37
2018-09-12T13:39:54.377Z,6.07
2018-09-12T13:42:23.141Z,5.90
2018-09-12T13:44:51.937Z,10.80
2018-09-12T13:47:20.978Z,7.33
2018-09-12T13:49:49.744Z,5.83
2018-09-12T13:52:18.584Z,6.60
2018-09-12T13:54:47.351Z,6.53
2018-09-12T13:57:16.039Z,7.67
2018-09-12T13:59:44.734Z,8.20
2018-09-12T14:02:13.502Z,6.60
2018-09-12T14:04:42.336Z,7.00
2018-09-12T14:07:11.150Z,9.03
2018-09-12T14:09:39.908Z,7.03
2018-09-12T14:12:08.843Z,5.73
2018-09-12T14:14:37.635Z,6.87
2018-09-12T14:17:06.444Z,10.00
2018-09-12T14:19:35.259Z,9.03
2018-09-12T14:22:03.899Z,7.80
2018-09-12T14:24:32.686Z,7.03
2018-09-12T14:27:01.431Z,11.57
2018-09-12T14:29:30.215Z,7.03
2018-09-12T14:31:58.979Z,9.37
2018-09-12T14:34:27.670Z,8.20
2018-09-12T14:36:56.407Z,7.20
2018-09-12T14:39:25.212Z,6.30
2018-09-12T14:41:53.959Z,7.83
2018-09-12T14:44:22.841Z,8.67
2018-09-12T14:46:51.687Z,7.27
2018-09-12T14:49:20.435Z,11.60
2018-09-12T14:51:49.274Z,7.07
2018-09-12T14:54:17.955Z,7.97
2018-09-12T14:56:46.671Z,7.90
2018-09-12T14:59:15.423Z,6.43
2018-09-12T15:01:44.104Z,8.23
2018-09-12T15:04:12.860Z,7.37
2018-09-12T15:06:41.746Z,7.87
2018-09-12T15:09:12.574Z,6.30
2018-09-12T15:11:41.370Z,10.00
2018-09-12T15:14:10.539Z,6.50
2018-09-12T15:16:39.378Z,10.63
2018-09-12T15:19:08.145Z,10.27
2018-09-12T15:21:36.824Z,7.33
2018-09-12T15:24:05.573Z,6.10
2018-09-12T15:26:34.372Z,6.37
2018-09-12T15:29:03.023Z,9.10
2018-09-12T15:31:31.731Z,11.27
2018-09-12T15:34:00.432Z,6.43
2018-09-12T15:36:29.155Z,6.93
2018-09-12T15:38:57.940Z,10.97
2018-09-12T15:41:26.659Z,9.23
2018-09-12T15:43:55.459Z,7.73
2018-09-12T15:46:24.208Z,7.17
2018-09-12T15:48:52.980Z,11.90
2018-09-12T15:51:21.689Z,10.33
2018-09-12T15:53:50.413Z,10.53
2018-09-12T15:56:19.215Z,10.73
2018-09-12T15:58:47.896Z,8.47
2018-09-12T16:01:16.558Z,7.50
2018-09-12T16:03:45.325Z,8.30
2018-09-12T16:06:14.051Z,7.23
2018-09-12T16:08:42.868Z,9.00
2018-09-12T16:11:11.715Z,9.77
2018-09-12T16:13:40.589Z,9.77
2018-09-12T16:16:09.401Z,12.97
2018-09-12T16:18:39.885Z,8.87
2018-09-12T16:21:08.595Z,11.23
2018-09-12T16:23:37.431Z,8.70
2018-09-12T16:26:06.352Z,11.30
2018-09-12T16:28:35.255Z,10.13
2018-09-12T16:31:03.923Z,11.67
2018-09-12T16:33:32.620Z,8.83
2018-09-12T16:36:02.710Z,14.00
2018-09-12T16:38:31.395Z,12.30
2018-09-12T16:41:00.189Z,10.63
2018-09-12T16:43:28.867Z,11.43
2018-09-12T16:45:57.700Z,9.33
2018-09-12T16:48:26.607Z,9.07
2018-09-12T16:50:55.427Z,8.77
2018-09-12T16:53:24.216Z,10.47
2018-09-12T16:55:52.919Z,12.43
2018-09-12T16:58:21.667Z,13.43
2018-09-12T17:00:50.419Z,10.47
2018-09-12T17:03:19.191Z,17.13
2018-09-12T17:05:47.892Z,14.07
2018-09-12T17:08:17.030Z,17.80
2018-09-12T17:10:45.815Z,14.27
2018-09-12T17:13:14.500Z,13.80
2018-09-12T17:15:43.291Z,9.57
2018-09-12T17:18:11.928Z,9.90
2018-09-12T17:20:40.591Z,11.43
2018-09-12T17:23:10.031Z,7.23
2018-09-12T17:25:38.743Z,12.80
2018-09-12T17:28:07.366Z,7.10
2018-09-12T17:30:36.087Z,8.53
2018-09-12T17:33:04.797Z,11.20
2018-09-12T17:35:33.525Z,10.53
2018-09-12T17:38:02.247Z,12.23
2018-09-12T17:40:31.000Z,13.13
2018-09-12T17:42:59.735Z,14.40
2018-09-12T17:45:28.546Z,11.20
2018-09-12T17:47:57.171Z,10.70
2018-09-12T17:50:25.854Z,11.47
2018-09-12T17:52:54.532Z,11.37
2018-09-12T17:55:23.196Z,11.80
2018-09-12T17:57:51.868Z,12.43
2018-09-12T18:00:20.688Z,13.70
2018-09-12T18:02:49.491Z,12.77
2018-09-12T18:05:18.267Z,16.70
2018-09-12T18:07:46.926Z,15.27
2018-09-12T18:10:15.645Z,14.60
2018-09-12T18:12:44.337Z,15.20
2018-09-12T18:15:13.027Z,12.73
2018-09-12T18:17:41.810Z,16.50
2018-09-12T18:20:10.660Z,12.83
2018-09-12T18:22:39.396Z,10.30
2018-09-12T18:25:08.121Z,13.93
2018-09-12T18:27:36.789Z,14.00
2018-09-12T18:30:07.643Z,11.87
2018-09-12T18:32:36.327Z,9.93
2018-09-12T18:35:05.109Z,13.27
2018-09-12T18:37:33.960Z,14.93
2018-09-12T18:40:03.231Z,16.77
2018-09-12T18:42:32.089Z,17.07
2018-09-12T18:45:00.809Z,16.43
2018-09-12T18:47:29.535Z,17.30
2018-09-12T18:49:58.281Z,11.83
2018-09-12T18:52:26.990Z,18.70
2018-09-12T18:54:55.672Z,16.83
2018-09-12T18:57:24.348Z,11.33
2018-09-12T18:59:52.994Z,14.10
2018-09-12T19:02:21.784Z,18.20
2018-09-12T19:04:50.659Z,19.50
2018-09-12T19:07:19.381Z,14.70
2018-09-12T19:09:48.082Z,12.00
2018-09-12T19:12:16.761Z,12.97
2018-09-12T19:14:45.457Z,13.60
2018-09-12T19:17:14.234Z,17.83
2018-09-12T19:19:42.970Z,16.60
2018-09-12T19:22:11.760Z,14.40
2018-09-12T19:24:40.442Z,14.67
2018-09-12T19:27:09.250Z,17.73
2018-09-12T19:29:38.003Z,16.20
2018-09-12T19:32:07.112Z,15.33
2018-09-12T19:34:35.820Z,16.73
2018-09-12T19:37:04.522Z,12.87
2018-09-12T19:39:33.217Z,11.63
2018-09-12T19:42:01.932Z,14.37
2018-09-12T19:44:30.698Z,11.53
2018-09-12T19:46:59.602Z,11.57
2018-09-12T19:49:28.272Z,20.10
2018-09-12T19:51:56.951Z,11.20
2018-09-12T19:54:25.746Z,18.10
2018-09-12T19:56:54.448Z,14.43
2018-09-12T19:59:23.531Z,13.67
2018-09-12T20:01:52.231Z,15.93
2018-09-12T20:04:20.933Z,12.83
2018-09-12T20:06:49.703Z,22.47
2018-09-12T20:09:18.515Z,17.53
2018-09-12T20:11:47.275Z,15.30
2018-09-12T20:14:16.086Z,18.37
2018-09-12T20:16:44.782Z,18.97
2018-09-12T20:19:13.792Z,15.43
2018-09-12T20:21:42.637Z,15.70
2018-09-12T20:24:11.583Z,22.53
2018-09-12T20:26:40.241Z,26.37
2018-09-12T20:29:09.078Z,17.40
2018-09-12T20:31:37.883Z,17.43
2018-09-12T20:34:06.835Z,12.73
2018-09-12T20:36:35.576Z,18.83
2018-09-12T20:39:06.330Z,16.77
2018-09-12T20:41:35.038Z,16.50
2018-09-12T20:44:03.817Z,19.40
2018-09-12T20:46:32.591Z,15.57
2018-09-12T20:49:01.271Z,18.83
2018-09-12T20:51:29.928Z,18.93
2018-09-12T20:53:59.555Z,16.67
2018-09-12T20:56:28.274Z,18.07
2018-09-12T20:58:57.956Z,15.50
2018-09-12T21:01:26.745Z,13.97
2018-09-12T21:03:55.415Z,19.90
2018-09-12T21:06:24.102Z,11.40
2018-09-12T21:08:52.818Z,13.07
2018-09-12T21:11:21.492Z,14.00
2018-09-12T21:13:50.185Z,12.63
2018-09-12T21:16:18.891Z,11.13
2018-09-12T21:18:47.640Z,13.53
2018-09-12T21:21:16.319Z,13.00
2018-09-12T21:23:45.180Z,13.23
2018-09-12T21:26:14.809Z,9.03
2018-09-12T21:28:43.495Z,11.70
2018-09-12T21:31:12.289Z,10.47
2018-09-12T21:33:40.981Z,10.57
2018-09-12T21:36:09.787Z,8.57
2018-09-12T21:38:38.618Z,11.30
2018-09-12T21:41:07.614Z,8.57
2018-09-12T21:43:36.331Z,10.97
2018-09-12T21:46:05.138Z,8.13
2018-09-12T21:48:33.869Z,9.03
2018-09-12T21:51:02.585Z,15.07
2018-09-12T21:53:31.443Z,10.50
2018-09-12T21:56:00.361Z,9.97
2018-09-12T21:58:29.102Z,10.47
2018-09-12T22:00:58.011Z,9.97
2018-09-12T22:03:26.819Z,11.47
2018-09-12T22:05:55.671Z,9.13
2018-09-12T22:08:24.423Z,9.70
2018-09-12T22:10:53.064Z,11.47
2018-09-12T22:13:21.778Z,9.67
2018-09-12T22:15:50.494Z,10.07
2018-09-12T22:18:19.294Z,11.37
2018-09-12T22:20:47.964Z,9.97
2018-09-12T22:23:16.786Z,10.90
2018-09-12T22:25:45.574Z,11.00
2018-09-12T22:28:14.340Z,9.77
2018-09-12T22:30:43.023Z,9.43
2018-09-12T22:33:11.759Z,10.23
2018-09-12T22:35:40.488Z,12.93
2018-09-12T22:38:09.234Z,17.37
2018-09-12T22:40:37.887Z,9.37
2018-09-12T22:43:06.940Z,12.97
2018-09-12T22:45:35.592Z,10.07
2018-09-12T22:48:04.317Z,10.37
2018-09-12T22:50:33.099Z,10.70
2018-09-12T22:53:01.843Z,11.20
2018-09-12T22:55:30.571Z,11.37
2018-09-12T22:57:59.260Z,9.47
2018-09-12T23:00:28.006Z,9.87
2018-09-12T23:02:56.762Z,10.37
2018-09-12T23:05:25.603Z,11.67
2018-09-12T23:07:54.456Z,10.77
2018-09-12T23:10:23.195Z,9.00
2018-09-12T23:12:52.037Z,9.37
2018-09-12T23:15:20.803Z,10.03
2018-09-12T23:17:49.516Z,10.13
2018-09-12T23:20:18.172Z,9.10
2018-09-12T23:22:46.828Z,8.37
2018-09-12T23:25:15.555Z,8.67
2018-09-12T23:27:44.319Z,8.60
2018-09-12T23:30:13.097Z,9.30
2018-09-12T23:32:41.823Z,7.83
2018-09-12T23:35:10.577Z,8.20
2018-09-12T23:37:39.241Z,9.60
2018-09-12T23:40:08.040Z,10.70
2018-09-12T23:42:36.784Z,10.67
2018-09-12T23:45:05.560Z,10.43
2018-09-12T23:47:34.270Z,10.23
2018-09-12T23:50:02.918Z,8.97
2018-09-12T23:52:31.780Z,9.93
2018-09-12T23:55:14.995Z,12.07
2018-09-12T23:57:43.650Z,8.13
